Adair, IL

6:15 PM CDT on September 18, 2014 (GMT -0500)
Astoria | Change Station
CLOSE
Current Station
Personal Weather Station
Location: Astoria, IL
Elevation: 712 ft
Nearby Weather Stations

Elev 712 ft 40.23 °N, 90.35 °W | Updated 17 seconds ago

Clear
Clear
73.5 °F
Feels Like 77 °F
N
0.0
Wind Variable Wind from NE
Gusts 0.0 mph

Today
High -- | Low -- °F
--% Chance of Precip.
Yesterday
High -- | Low -- °F
Precip. -- in
6:45 AM 7:05 PM
Waning Crescent, 24% visible
Pressure 30.06 in
Visibility 10.0 miles
Clouds Clear
Heat Index 77 °F
Dew Point 55 °F
Humidity 52%
Rainfall 0.01 in
Snow Depth Not available.
UV 1 out of 12
Pollen 5.40 out of 12
Air Quality Not available.
Flu Activity Not available.
METAR KMQB 182255Z AUTO 08008KT 10SM CLR 22/10 A3006 RMK AO2 T02230101

More Conditions Fewer Conditions

Pressure 30.06 in
Visibility 10.0 miles
Clouds Clear
Heat Index 77 °F
Dew Point 55 °F
Humidity 52%
Rainfall 0.01 in
Snow Depth Not available.
UV 1 out of 12
Pollen 5.40 out of 12
Air Quality Not available.
Flu Activity Not available.
METAR KMQB 182255Z AUTO 08008KT 10SM CLR 22/10 A3006 RMK AO2 T02230101

More Conditions Fewer Conditions

10-Day Weather Forecast

Almanac

Astronomy

Sep. 18, 2014 Rise Set
Actual Time 6:45 AM CDT 7:05 PM CDT
Civil Twilight 6:18 AM CDT 7:32 PM CDT
Nautical Twilight 5:46 AM CDT 8:04 PM CDT
Astronomical Twilight 5:13 AM CDT 8:37 PM CDT
Moon 1:37 AM CDT 3:57 PM CDT
Length of Visible Light 13h 14m
Length of Day
12h 20m
Tomorrow will be 2m 37s shorter.
Waning Crescent, 24% of the Moon is Illuminated
Today
Waning Crescent
Sep 24
New
Oct 1
First Quarter
Oct 8
Full
Oct 15
Last Quarter

Today's Extremes

State Highs State Lows

Community

WunderPhotos

Upload Photos

1,754,481 photos uploaded!

WunderBlogs® & News

Nearby

Snow Depth

Station Depth Elevation
No new snow has been reported.

Earthquake Activity

City Distance Mag. Time & Date
No recent earthquake activity has been reported nearby.
Minimum magnitude displayed is 2.5.

Coastal Water Temperatures

Place Temperature
No Stations Reporting

Nearby Weather Stations